Time;durP1;ratioP1;P1;durP2;ratioP2;P2;SDS_P1;SDS_P2;PMS_P1;PMS_P2;Temp;Humidity;BMP_temperature;BMP_pressure;BME280_temperature;BME280_humidity;BME280_pressure;Samples;Min_cycle;Max_cycle;Signal;HPM_P1;HPM_P2
2024/04/13 00:01:49;;;;;;;;;;;;;;;15.68;61.36;101142.78;4568739;26;19928;-73
2024/04/13 00:03:52;;;;;;;;;;;;;;;15.60;61.51;101137.31;4569566;26;20263;-72
2024/04/13 00:05:52;;;;;;;;;;;;;;;15.58;61.39;101137.47;4569342;26;19991;-72
2024/04/13 00:07:55;;;;;;;;;;;;;;;15.49;61.82;101141.06;4568970;26;20363;-72
2024/04/13 00:09:55;;;;;;;;;;;;;;;15.42;61.76;101138.13;4569049;25;19927;-73
2024/04/13 00:11:55;;;;;;;;;;;;;;;15.32;62.06;101131.94;4536782;26;19957;-72
2024/04/13 00:13:56;;;;;;;;;;;;;;;15.17;62.39;101130.75;4569828;26;19955;-72
2024/04/13 00:15:57;;;;;;;;;;;;;;;15.12;62.44;101129.31;4570672;26;19928;-73
2024/04/13 00:18:00;;;;;;;;;;;;;;;15.01;63.14;101134.91;4571097;26;19928;-73
2024/04/13 00:20:03;;;;;;;;;;;;;;;14.97;63.19;101130.81;4573240;25;19939;-73
2024/04/13 00:22:05;;;;;;;;;;;;;;;14.91;63.36;101124.16;4580762;26;19955;-73
2024/04/13 00:24:06;;;;;;;;;;;;;;;14.94;63.39;101126.56;4571442;26;20011;-72
2024/04/13 00:26:06;;;;;;;;;;;;;;;14.89;63.18;101133.41;4569530;26;19927;-73
2024/04/13 00:28:08;;;;;;;;;;;;;;;15.00;63.21;101130.53;4569165;26;20479;-73
2024/04/13 00:30:09;;;;;;;;;;;;;;;15.07;62.50;101134.31;4570693;25;19979;-72
2024/04/13 00:32:09;;;;;;;;;;;;;;;15.02;62.77;101128.50;4538599;26;19928;-72
2024/04/13 00:34:10;;;;;;;;;;;;;;;15.04;62.78;101126.53;4571704;26;19933;-72
2024/04/13 00:36:10;;;;;;;;;;;;;;;14.99;62.75;101123.44;4571025;26;19951;-73
2024/04/13 00:38:11;;;;;;;;;;;;;;;14.93;63.21;101130.25;4571296;26;19940;-72
2024/04/13 00:40:12;;;;;;;;;;;;;;;14.98;62.91;101124.44;4570739;25;20285;-72
2024/04/13 00:42:14;;;;;;;;;;;;;;;14.85;62.97;101119.38;4571958;26;19940;-72
2024/04/13 00:44:15;;;;;;;;;;;;;;;14.89;63.10;101123.47;4570458;26;19933;-72
2024/04/13 00:46:23;;;;;;;;;;;;;;;14.90;62.88;101121.63;4569237;26;20267;-73
2024/04/13 00:48:30;;;;;;;;;;;;;;;14.86;63.29;101118.38;4569060;26;19927;-72
2024/04/13 00:50:30;;;;;;;;;;;;;;;15.00;62.79;101124.28;4568061;25;19935;-72
2024/04/13 00:52:31;;;;;;;;;;;;;;;15.03;62.55;101126.69;4568814;26;19935;-72
2024/04/13 00:54:34;;;;;;;;;;;;;;;15.10;62.36;101127.78;4569177;26;19928;-72
2024/04/13 00:56:34;;;;;;;;;;;;;;;15.25;62.16;101128.16;4569269;26;20362;-72
2024/04/13 00:58:36;;;;;;;;;;;;;;;15.20;62.30;101130.44;4568815;26;19935;-73
2024/04/13 01:00:36;;;;;;;;;;;;;;;15.37;62.06;101123.41;4569657;25;20007;-72
2024/04/13 01:02:37;;;;;;;;;;;;;;;15.41;62.00;101122.94;4571002;26;19935;-72
2024/04/13 01:04:37;;;;;;;;;;;;;;;15.43;62.06;101118.25;4571423;26;20352;-72
2024/04/13 01:06:38;;;;;;;;;;;;;;;15.46;62.33;101118.97;4570407;26;20670;-73
2024/04/13 01:08:40;;;;;;;;;;;;;;;15.48;62.37;101112.41;4571103;26;19939;-72
2024/04/13 01:10:43;;;;;;;;;;;;;;;15.48;62.84;101114.28;4569266;25;19928;-73
2024/04/13 01:12:43;;;;;;;;;;;;;;;15.49;62.38;101113.28;4569460;26;20264;-72
2024/04/13 01:14:44;;;;;;;;;;;;;;;15.53;62.62;101111.97;4569550;26;19928;-73
2024/04/13 01:16:44;;;;;;;;;;;;;;;15.59;62.27;101114.03;4572762;26;20340;-72
2024/04/13 01:18:45;;;;;;;;;;;;;;;15.50;62.05;101120.34;4571627;26;20028;-72
2024/04/13 01:20:45;;;;;;;;;;;;;;;15.36;62.73;101124.41;4569815;25;19934;-72
2024/04/13 01:22:47;;;;;;;;;;;;;;;15.44;62.96;101117.28;4571489;26;19934;-72
2024/04/13 01:24:49;;;;;;;;;;;;;;;15.38;63.20;101117.88;4570520;26;20255;-72
2024/04/13 01:26:49;;;;;;;;;;;;;;;15.40;63.09;101109.63;4571513;26;19959;-72
2024/04/13 01:28:50;;;;;;;;;;;;;;;15.41;62.97;101114.88;4571645;26;20315;-72
2024/04/13 01:30:52;;;;;;;;;;;;;;;15.44;62.71;101111.88;4570732;25;19934;-72
2024/04/13 01:32:52;;;;;;;;;;;;;;;15.43;62.70;101112.88;4571390;26;19939;-73
2024/04/13 01:34:53;;;;;;;;;;;;;;;15.30;62.67;101109.72;4571253;26;19939;-72
2024/04/13 01:36:54;;;;;;;;;;;;;;;15.19;63.11;101117.97;4571460;26;19939;-72
2024/04/13 01:38:54;;;;;;;;;;;;;;;15.22;63.35;101118.53;4568565;25;19929;-72
2024/04/13 01:40:54;;;;;;;;;;;;;;;15.34;63.31;101115.63;4559750;26;19927;-72
2024/04/13 01:42:55;;;;;;;;;;;;;;;15.31;63.52;101122.16;4568451;26;19931;-73
2024/04/13 01:44:55;;;;;;;;;;;;;;;15.35;62.88;101126.25;4564736;26;19928;-72
2024/04/13 01:46:58;;;;;;;;;;;;;;;15.16;63.42;101129.03;4540378;26;19928;-72
2024/04/13 01:49:00;;;;;;;;;;;;;;;14.93;63.95;101124.88;4567139;25;20307;-72
2024/04/13 01:51:04;;;;;;;;;;;;;;;14.96;63.91;101129.13;4590792;25;19939;-72
2024/04/13 01:53:04;;;;;;;;;;;;;;;14.88;63.68;101124.44;4579093;26;20412;-72
2024/04/13 01:55:05;;;;;;;;;;;;;;;15.07;63.33;101128.94;4538704;26;19928;-72
2024/04/13 01:57:06;;;;;;;;;;;;;;;15.01;63.35;101132.22;4563779;26;20635;-73
2024/04/13 01:59:06;;;;;;;;;;;;;;;15.06;63.36;101131.78;4540434;26;20022;-72
2024/04/13 02:01:07;;;;;;;;;;;;;;;14.90;63.45;101135.94;4539500;26;19935;-72
2024/04/13 02:03:07;;;;;;;;;;;;;;;14.91;63.35;101134.09;4541005;26;19928;-72
2024/04/13 02:05:07;;;;;;;;;;;;;;;14.90;63.20;101130.53;4540758;26;19928;-72
2024/04/13 02:07:09;;;;;;;;;;;;;;;14.95;63.16;101132.78;4542222;26;19935;-72
2024/04/13 02:09:13;;;;;;;;;;;;;;;15.06;62.51;101137.16;4542201;26;19928;-72
2024/04/13 02:11:13;;;;;;;;;;;;;;;15.06;62.80;101138.00;4539709;26;19928;-71
2024/04/13 02:13:13;;;;;;;;;;;;;;;15.04;63.50;101137.28;4540362;26;19939;-74
2024/04/13 02:15:13;;;;;;;;;;;;;;;15.05;63.11;101128.22;4540314;26;19939;-73
2024/04/13 02:17:14;;;;;;;;;;;;;;;15.04;63.55;101121.13;4540052;26;19928;-72
2024/04/13 02:19:15;;;;;;;;;;;;;;;15.05;63.67;101120.16;4538964;26;19955;-73
2024/04/13 02:21:16;;;;;;;;;;;;;;;14.78;63.29;101127.19;4538199;26;19935;-72
2024/04/13 02:23:16;;;;;;;;;;;;;;;14.57;64.42;101127.34;4539917;26;19964;-72
2024/04/13 02:25:18;;;;;;;;;;;;;;;14.56;64.05;101124.78;4539967;26;19928;-73
2024/04/13 02:27:18;;;;;;;;;;;;;;;14.44;64.92;101132.19;4538938;26;19935;-72
2024/04/13 02:29:18;;;;;;;;;;;;;;;14.43;64.91;101128.66;4540339;26;19987;-73
2024/04/13 02:31:19;;;;;;;;;;;;;;;14.32;65.23;101121.56;4539169;26;19992;-72
2024/04/13 02:33:19;;;;;;;;;;;;;;;14.44;65.45;101116.91;4543810;26;19928;-72
2024/04/13 02:35:19;;;;;;;;;;;;;;;14.43;64.87;101117.91;4570292;26;19935;-72
2024/04/13 02:37:20;;;;;;;;;;;;;;;14.31;64.89;101125.25;4570542;26;19934;-73
2024/04/13 02:39:21;;;;;;;;;;;;;;;14.28;65.10;101119.31;4570925;25;20012;-74
2024/04/13 02:41:21;;;;;;;;;;;;;;;14.20;64.99;101123.56;4570352;26;19928;-72
2024/04/13 02:43:22;;;;;;;;;;;;;;;14.17;65.35;101123.84;4571392;26;19995;-72
2024/04/13 02:45:22;;;;;;;;;;;;;;;14.11;65.37;101129.78;4571251;26;19964;-72
2024/04/13 02:47:23;;;;;;;;;;;;;;;14.08;65.54;101129.22;4571273;26;19931;-73
2024/04/13 02:49:23;;;;;;;;;;;;;;;14.07;65.12;101133.78;4574878;25;19927;-73
2024/04/13 02:51:24;;;;;;;;;;;;;;;14.07;64.85;101128.41;4548670;26;19928;-73
2024/04/13 02:53:24;;;;;;;;;;;;;;;14.07;64.88;101133.78;4581984;26;19964;-72
2024/04/13 02:55:25;;;;;;;;;;;;;;;14.01;65.07;101132.50;4581893;26;19935;-73
2024/04/13 02:57:25;;;;;;;;;;;;;;;13.95;65.73;101130.34;4550397;26;20383;-73
2024/04/13 02:59:28;;;;;;;;;;;;;;;13.89;65.64;101131.75;4573872;25;20375;-72
2024/04/13 03:01:28;;;;;;;;;;;;;;;13.87;65.30;101130.22;4570241;26;19931;-73
2024/04/13 03:03:29;;;;;;;;;;;;;;;13.72;66.01;101129.75;4570190;26;19939;-73
2024/04/13 03:05:30;;;;;;;;;;;;;;;13.66;65.86;101130.31;4570530;26;19935;-73
2024/04/13 03:07:32;;;;;;;;;;;;;;;13.59;66.30;101129.19;4570297;26;20384;-73
2024/04/13 03:09:33;;;;;;;;;;;;;;;13.58;66.03;101136.38;4570380;25;19934;-72
2024/04/13 03:11:33;;;;;;;;;;;;;;;13.55;66.58;101136.69;4569236;26;19935;-73
2024/04/13 03:13:35;;;;;;;;;;;;;;;13.61;66.21;101135.25;4570008;26;19927;-72
2024/04/13 03:15:36;;;;;;;;;;;;;;;13.77;65.75;101140.97;4538038;26;19959;-74
2024/04/13 03:17:36;;;;;;;;;;;;;;;13.77;65.34;101138.28;4570508;26;20420;-73
2024/04/13 03:19:38;;;;;;;;;;;;;;;13.64;65.51;101138.53;4576293;25;19935;-73
2024/04/13 03:21:39;;;;;;;;;;;;;;;13.49;66.08;101124.63;4583275;26;19927;-74
2024/04/13 03:23:40;;;;;;;;;;;;;;;13.40;65.89;101137.03;4539221;26;19935;-73
2024/04/13 03:25:41;;;;;;;;;;;;;;;13.39;65.91;101129.13;4570691;26;19935;-72
2024/04/13 03:27:42;;;;;;;;;;;;;;;13.44;66.13;101137.63;4570580;26;19928;-73
2024/04/13 03:29:42;;;;;;;;;;;;;;;13.45;66.26;101136.63;4570143;25;19927;-72
2024/04/13 03:31:42;;;;;;;;;;;;;;;13.41;66.04;101137.91;4569316;26;20725;-72
2024/04/13 03:33:43;;;;;;;;;;;;;;;13.31;66.17;101128.94;4569934;26;20389;-72
2024/04/13 03:35:44;;;;;;;;;;;;;;;13.31;66.47;101127.09;4570499;26;19934;-72
2024/04/13 03:37:44;;;;;;;;;;;;;;;13.22;66.94;101126.09;4569890;26;20407;-72
2024/04/13 03:39:45;;;;;;;;;;;;;;;13.10;67.52;101130.69;4569104;25;19983;-72
2024/04/13 03:41:45;;;;;;;;;;;;;;;13.15;67.08;101132.97;4569564;26;19927;-73
2024/04/13 03:43:46;;;;;;;;;;;;;;;13.10;67.24;101129.84;4569910;26;19927;-73
2024/04/13 03:45:52;;;;;;;;;;;;;;;13.03;67.63;101134.06;4571892;26;19931;-72
2024/04/13 03:47:52;;;;;;;;;;;;;;;12.99;67.61;101133.44;4572507;26;19927;-72
2024/04/13 03:49:52;;;;;;;;;;;;;;;12.94;67.94;101130.34;4573793;25;19932;-72
2024/04/13 03:51:53;;;;;;;;;;;;;;;12.85;68.36;101121.25;4570394;26;19955;-71
2024/04/13 03:53:53;;;;;;;;;;;;;;;12.72;68.61;101120.63;4537514;26;19936;-71
2024/04/13 03:55:53;;;;;;;;;;;;;;;12.61;68.84;101121.56;4537756;26;19934;-72
2024/04/13 03:57:54;;;;;;;;;;;;;;;12.66;69.05;101122.00;4537539;26;19934;-72
2024/04/13 03:59:54;;;;;;;;;;;;;;;12.72;68.61;101123.31;4569073;25;19951;-72
2024/04/13 04:01:58;;;;;;;;;;;;;;;12.61;68.92;101114.34;4568555;26;19935;-73
2024/04/13 04:03:58;;;;;;;;;;;;;;;12.57;68.73;101112.06;4569459;26;20009;-73
2024/04/13 04:05:59;;;;;;;;;;;;;;;12.55;69.17;101112.19;4569445;26;20264;-73
2024/04/13 04:07:59;;;;;;;;;;;;;;;12.53;68.76;101121.34;4537480;26;19939;-72
2024/04/13 04:10:00;;;;;;;;;;;;;;;12.56;68.99;101115.72;4569140;25;20009;-73
2024/04/13 04:12:01;;;;;;;;;;;;;;;12.65;68.62;101122.97;4571011;26;19935;-73
2024/04/13 04:14:01;;;;;;;;;;;;;;;12.84;68.04;101118.69;4575367;26;19934;-73
2024/04/13 04:16:01;;;;;;;;;;;;;;;12.81;67.96;101125.19;4574125;26;20260;-72
2024/04/13 04:18:05;;;;;;;;;;;;;;;12.75;67.82;101131.09;4537472;26;19994;-72
2024/04/13 04:20:06;;;;;;;;;;;;;;;12.68;68.01;101124.53;4537009;26;19928;-73
2024/04/13 04:22:06;;;;;;;;;;;;;;;12.55;68.20;101128.28;4568525;26;20655;-72
2024/04/13 04:24:06;;;;;;;;;;;;;;;12.43;68.63;101130.16;4568734;26;20292;-72
2024/04/13 04:26:06;;;;;;;;;;;;;;;12.54;68.74;101133.78;4569861;26;20345;-73
2024/04/13 04:28:07;;;;;;;;;;;;;;;12.54;68.54;101133.78;4569676;26;20035;-72
2024/04/13 04:30:08;;;;;;;;;;;;;;;12.58;68.64;101135.22;4569327;25;19959;-73
2024/04/13 04:32:09;;;;;;;;;;;;;;;12.54;68.16;101131.09;4568971;26;19927;-72
2024/04/13 04:34:09;;;;;;;;;;;;;;;12.51;68.80;101128.69;4537370;26;19935;-72
2024/04/13 04:36:10;;;;;;;;;;;;;;;12.62;68.34;101126.78;4569863;26;19995;-72
2024/04/13 04:38:12;;;;;;;;;;;;;;;12.81;67.83;101133.22;4570004;26;19928;-72
2024/04/13 04:40:12;;;;;;;;;;;;;;;12.94;67.38;101133.84;4569040;25;19939;-72
2024/04/13 04:42:13;;;;;;;;;;;;;;;12.99;67.22;101127.25;4568213;26;19938;-72
2024/04/13 04:44:13;;;;;;;;;;;;;;;13.10;66.78;101127.16;4569131;26;20364;-72
2024/04/13 04:46:13;;;;;;;;;;;;;;;13.14;66.76;101125.88;4569821;26;19927;-72
2024/04/13 04:48:14;;;;;;;;;;;;;;;12.95;66.64;101130.19;4570181;26;19935;-72
2024/04/13 04:50:16;;;;;;;;;;;;;;;12.80;67.27;101127.00;4581914;25;20388;-73
2024/04/13 04:52:19;;;;;;;;;;;;;;;12.66;67.94;101123.84;4578531;26;19934;-73
2024/04/13 04:54:20;;;;;;;;;;;;;;;12.70;67.75;101123.44;4569623;26;20348;-72
2024/04/13 04:56:20;;;;;;;;;;;;;;;12.74;67.78;101127.53;4569612;26;19928;-73
2024/04/13 04:58:21;;;;;;;;;;;;;;;12.76;67.41;101122.03;4569442;26;19936;-73
2024/04/13 05:00:21;;;;;;;;;;;;;;;12.77;67.63;101129.09;4568745;25;19927;-73
2024/04/13 05:02:21;;;;;;;;;;;;;;;12.81;67.34;101125.19;4569210;26;19927;-73
2024/04/13 05:04:25;;;;;;;;;;;;;;;12.73;67.27;101123.16;4568538;26;19951;-73
2024/04/13 05:06:25;;;;;;;;;;;;;;;12.60;67.89;101120.69;4568504;26;19928;-73
2024/04/13 05:08:25;;;;;;;;;;;;;;;12.54;67.96;101125.72;4568483;26;19927;-72
2024/04/13 05:10:26;;;;;;;;;;;;;;;12.44;68.05;101123.00;4567628;25;19927;-72
2024/04/13 05:12:27;;;;;;;;;;;;;;;12.40;68.33;101121.53;4536190;26;19928;-73
2024/04/13 05:14:27;;;;;;;;;;;;;;;12.38;68.27;101118.13;4568779;26;19938;-73
2024/04/13 05:16:27;;;;;;;;;;;;;;;12.31;68.30;101123.19;4569245;26;19928;-72
2024/04/13 05:18:28;;;;;;;;;;;;;;;12.37;68.31;101127.19;4569205;26;19992;-72
2024/04/13 05:20:28;;;;;;;;;;;;;;;12.38;68.33;101127.03;4568192;25;19935;-71
2024/04/13 05:22:29;;;;;;;;;;;;;;;12.26;68.20;101125.38;4536944;26;20002;-72
2024/04/13 05:24:29;;;;;;;;;;;;;;;12.20;68.64;101121.38;4567265;26;20742;-73
2024/04/13 05:26:30;;;;;;;;;;;;;;;12.01;68.90;101117.56;4568605;26;19928;-72
2024/04/13 05:28:30;;;;;;;;;;;;;;;12.06;68.88;101113.66;4568836;26;19927;-72
2024/04/13 05:30:31;;;;;;;;;;;;;;;12.08;68.91;101125.13;4568043;25;19935;-72
2024/04/13 05:32:33;;;;;;;;;;;;;;;12.24;68.70;101128.22;4536606;26;19934;-73
2024/04/13 05:34:33;;;;;;;;;;;;;;;12.24;68.36;101133.56;4568921;26;20335;-72
2024/04/13 05:36:34;;;;;;;;;;;;;;;12.10;68.66;101134.72;4574630;26;19934;-72
2024/04/13 05:38:35;;;;;;;;;;;;;;;12.04;69.23;101142.41;4543598;26;19935;-73
2024/04/13 05:40:36;;;;;;;;;;;;;;;12.07;69.06;101142.19;4573687;25;19935;-73
2024/04/13 05:42:37;;;;;;;;;;;;;;;12.04;69.32;101139.75;4575806;26;19936;-72
2024/04/13 05:44:37;;;;;;;;;;;;;;;12.11;69.48;101143.59;4574219;26;20315;-71
2024/04/13 05:46:37;;;;;;;;;;;;;;;12.24;68.73;101136.25;4541754;26;19992;-73
2024/04/13 05:48:38;;;;;;;;;;;;;;;12.35;68.72;101143.38;4569055;26;20267;-72
2024/04/13 05:50:38;;;;;;;;;;;;;;;12.51;67.77;101142.94;4567764;25;19933;-72
2024/04/13 05:52:39;;;;;;;;;;;;;;;12.68;67.35;101146.00;4569528;26;19935;-73
2024/04/13 05:54:39;;;;;;;;;;;;;;;12.80;66.93;101144.94;4578745;26;20252;-74
2024/04/13 05:56:40;;;;;;;;;;;;;;;13.01;66.67;101146.75;4575252;26;20473;-74
2024/04/13 05:58:40;;;;;;;;;;;;;;;13.09;66.41;101152.31;4536498;26;19932;-73
2024/04/13 06:00:41;;;;;;;;;;;;;;;13.19;65.60;101158.56;4568198;25;19927;-73
2024/04/13 06:02:41;;;;;;;;;;;;;;;13.17;66.17;101163.22;4540360;26;20250;-72
2024/04/13 06:04:42;;;;;;;;;;;;;;;13.26;65.96;101165.09;4572421;26;19934;-73
2024/04/13 06:06:42;;;;;;;;;;;;;;;13.24;65.94;101161.69;4540127;26;19928;-73
2024/04/13 06:08:42;;;;;;;;;;;;;;;13.43;65.17;101162.78;4578926;26;19943;-73
2024/04/13 06:10:43;;;;;;;;;;;;;;;13.52;65.05;101159.25;4551756;26;19932;-73
2024/04/13 06:12:43;;;;;;;;;;;;;;;13.57;64.86;101156.16;4582612;26;19934;-73
2024/04/13 06:14:47;;;;;;;;;;;;;;;13.65;64.30;101160.88;4573882;26;19934;-73
2024/04/13 06:16:53;;;;;;;;;;;;;;;13.71;64.12;101165.69;4578235;26;19932;-72
2024/04/13 06:18:53;;;;;;;;;;;;;;;13.76;64.16;101152.69;4581912;26;19938;-73
2024/04/13 06:20:54;;;;;;;;;;;;;;;13.78;64.09;101158.78;4578381;25;19927;-73
2024/04/13 06:22:54;;;;;;;;;;;;;;;13.89;63.77;101158.63;4572011;26;19992;-76
2024/04/13 06:24:55;;;;;;;;;;;;;;;13.93;63.34;101159.22;4577862;26;19934;-72
2024/04/13 06:26:55;;;;;;;;;;;;;;;14.08;63.23;101159.66;4571133;26;19935;-72
2024/04/13 06:28:55;;;;;;;;;;;;;;;14.12;63.13;101157.56;4571673;26;19927;-74
2024/04/13 06:30:55;;;;;;;;;;;;;;;14.19;62.50;101162.19;4569808;25;19928;-73
2024/04/13 06:32:56;;;;;;;;;;;;;;;14.40;62.29;101166.59;4570695;26;19940;-73
2024/04/13 06:34:56;;;;;;;;;;;;;;;14.44;61.66;101159.94;4570962;26;19928;-74
2024/04/13 06:36:57;;;;;;;;;;;;;;;14.55;61.77;101152.72;4539734;26;20024;-73
2024/04/13 06:38:57;;;;;;;;;;;;;;;14.65;61.17;101157.06;4538449;26;19928;-73
2024/04/13 06:40:57;;;;;;;;;;;;;;;14.56;61.49;101160.63;4571211;25;19927;-73
2024/04/13 06:42:58;;;;;;;;;;;;;;;14.65;61.41;101158.91;4570295;26;20397;-72
2024/04/13 06:44:58;;;;;;;;;;;;;;;14.67;61.43;101156.97;4572231;26;19934;-73
2024/04/13 06:47:00;;;;;;;;;;;;;;;14.79;61.02;101161.19;4574775;26;19935;-74
2024/04/13 06:49:01;;;;;;;;;;;;;;;14.91;60.48;101156.47;4573687;26;19927;-73
2024/04/13 06:51:02;;;;;;;;;;;;;;;15.04;59.88;101150.75;4542704;26;20546;-73
2024/04/13 06:53:02;;;;;;;;;;;;;;;15.17;59.64;101158.50;4540207;26;19934;-74
2024/04/13 06:55:04;;;;;;;;;;;;;;;15.19;59.60;101155.69;4572681;26;19935;-74
2024/04/13 06:57:05;;;;;;;;;;;;;;;15.18;59.31;101159.38;4572029;26;19939;-73
2024/04/13 06:59:06;;;;;;;;;;;;;;;15.28;59.12;101161.00;4574262;25;20396;-76
2024/04/13 07:01:07;;;;;;;;;;;;;;;15.22;59.20;101158.06;4571370;26;19927;-72
2024/04/13 07:03:07;;;;;;;;;;;;;;;15.48;58.24;101142.06;4571150;26;19960;-75
2024/04/13 07:05:07;;;;;;;;;;;;;;;15.68;57.69;101147.34;4571256;26;20359;-75
2024/04/13 07:07:08;;;;;;;;;;;;;;;15.77;57.57;101151.00;4570913;26;19935;-74
2024/04/13 07:09:11;;;;;;;;;;;;;;;15.90;57.15;101143.38;4569867;25;19934;-75
2024/04/13 07:11:11;;;;;;;;;;;;;;;15.78;57.40;101147.25;4569465;26;19996;-74
2024/04/13 07:13:12;;;;;;;;;;;;;;;15.77;57.18;101151.00;4572991;26;19952;-74
2024/04/13 07:15:13;;;;;;;;;;;;;;;16.01;57.37;101143.16;4572414;26;19996;-74
2024/04/13 07:17:13;;;;;;;;;;;;;;;15.89;57.28;101141.69;4570622;26;20244;-74
2024/04/13 07:19:14;;;;;;;;;;;;;;;16.02;56.76;101138.59;4538411;26;20001;-74
2024/04/13 07:21:14;;;;;;;;;;;;;;;16.17;56.44;101145.19;4569411;26;20259;-73
2024/04/13 07:23:16;;;;;;;;;;;;;;;16.22;56.19;101144.72;4570472;26;19927;-75
2024/04/13 07:25:16;;;;;;;;;;;;;;;16.44;55.76;101142.50;4569678;26;19928;-76
2024/04/13 07:27:16;;;;;;;;;;;;;;;16.45;55.47;101146.91;4569420;26;19927;-74
2024/04/13 07:29:17;;;;;;;;;;;;;;;16.50;55.31;101134.63;4570986;25;20447;-72
2024/04/13 07:31:17;;;;;;;;;;;;;;;16.86;54.36;101127.47;4574491;26;19927;-73
2024/04/13 07:33:18;;;;;;;;;;;;;;;16.91;54.09;101131.34;4574579;26;19960;-74
2024/04/13 07:35:18;;;;;;;;;;;;;;;17.15;53.67;101127.97;4574820;26;19936;-74
2024/04/13 07:37:20;;;;;;;;;;;;;;;17.13;53.18;101123.75;4574164;26;20461;-73
2024/04/13 07:39:21;;;;;;;;;;;;;;;17.16;53.12;101131.53;4544351;26;19928;-74
2024/04/13 07:41:22;;;;;;;;;;;;;;;17.22;52.90;101128.16;4576254;26;19972;-73
2024/04/13 07:43:23;;;;;;;;;;;;;;;17.52;52.70;101123.22;4574214;26;20005;-73
2024/04/13 07:45:23;;;;;;;;;;;;;;;17.72;51.79;101121.06;4570651;26;19996;-73
2024/04/13 07:47:24;;;;;;;;;;;;;;;17.83;52.19;101117.22;4572426;26;19935;-72
2024/04/13 07:49:24;;;;;;;;;;;;;;;17.84;52.18;101116.22;4570341;25;20388;-72
2024/04/13 07:51:24;;;;;;;;;;;;;;;18.41;50.57;101109.16;4569639;26;19928;-72
2024/04/13 07:53:25;;;;;;;;;;;;;;;18.69;50.14;101100.66;4570617;26;20030;-72
2024/04/13 07:55:25;;;;;;;;;;;;;;;18.72;50.23;101103.00;4569524;26;20252;-72
2024/04/13 07:57:26;;;;;;;;;;;;;;;18.88;50.18;101104.00;4569567;26;19928;-72
2024/04/13 07:59:26;;;;;;;;;;;;;;;19.47;49.14;101090.88;4570818;25;20670;-72
2024/04/13 08:01:26;;;;;;;;;;;;;;;19.63;48.71;101094.53;4570367;26;20463;-72
2024/04/13 08:03:27;;;;;;;;;;;;;;;19.95;48.12;101095.34;4569122;26;19939;-73
2024/04/13 08:05:27;;;;;;;;;;;;;;;20.12;47.90;101096.06;4569329;26;19934;-72
2024/04/13 08:07:27;;;;;;;;;;;;;;;19.86;48.02;101088.28;4569049;26;19972;-72
2024/04/13 08:09:27;;;;;;;;;;;;;;;19.55;48.63;101091.88;4569359;25;19956;-73
2024/04/13 08:11:28;;;;;;;;;;;;;;;20.07;47.50;101090.34;4567951;26;19959;-73
2024/04/13 08:13:28;;;;;;;;;;;;;;;19.98;47.66;101086.84;4569295;26;19927;-72
2024/04/13 08:15:29;;;;;;;;;;;;;;;20.42;46.98;101082.56;4569153;26;19928;-72
2024/04/13 08:17:29;;;;;;;;;;;;;;;20.25;46.98;101082.72;4569213;26;19938;-71
2024/04/13 08:19:29;;;;;;;;;;;;;;;20.60;46.59;101078.66;4569747;25;19994;-73
2024/04/13 08:21:30;;;;;;;;;;;;;;;20.51;46.28;101073.31;4569148;26;19928;-74
2024/04/13 08:23:30;;;;;;;;;;;;;;;20.91;45.69;101073.06;4569274;26;20237;-73
2024/04/13 08:25:30;;;;;;;;;;;;;;;21.06;45.35;101072.22;4566177;26;20315;-74
2024/04/13 08:27:32;;;;;;;;;;;;;;;21.31;44.72;101068.13;4568293;26;19935;-72
2024/04/13 08:29:33;;;;;;;;;;;;;;;21.35;44.50;101069.41;4568466;25;19939;-72
2024/04/13 08:31:33;;;;;;;;;;;;;;;20.80;45.41;101071.66;4567548;26;19935;-72
2024/04/13 08:33:34;;;;;;;;;;;;;;;20.90;45.26;101074.09;4561426;26;19943;-72
2024/04/13 08:35:42;;;;;;;;;;;;;;;21.33;44.61;101062.50;4557802;26;20005;-75
2024/04/13 08:37:44;;;;;;;;;;;;;;;21.57;43.90;101064.03;4556840;26;20341;-73
2024/04/13 08:39:48;;;;;;;;;;;;;;;21.93;43.24;101060.44;4557111;26;19927;-74
2024/04/13 08:42:09;;;;;;;;;;;;;;;21.83;43.24;101051.75;4565353;26;20347;-73
2024/04/13 08:44:17;;;;;;;;;;;;;;;21.85;42.97;101057.00;4558587;26;20454;-72
2024/04/13 08:46:18;;;;;;;;;;;;;;;21.97;43.20;101053.56;4546364;26;19928;-72
2024/04/13 08:48:28;;;;;;;;;;;;;;;22.64;42.04;101036.88;4537236;26;19936;-72
2024/04/13 08:50:41;;;;;;;;;;;;;;;23.03;41.01;101040.03;4536432;26;20256;-73
2024/04/13 08:52:51;;;;;;;;;;;;;;;22.72;41.66;101038.63;4537540;26;19935;-73
2024/04/13 08:55:00;;;;;;;;;;;;;;;23.25;40.38;101037.19;4537279;26;19936;-72
2024/04/13 08:57:01;;;;;;;;;;;;;;;22.83;41.38;101037.19;4546322;26;19941;-72
2024/04/13 08:59:05;;;;;;;;;;;;;;;22.14;42.50;101036.94;4557405;26;19934;-73
2024/04/13 09:01:12;;;;;;;;;;;;;;;23.01;40.65;101031.22;4564047;26;19939;-72
2024/04/13 09:03:15;;;;;;;;;;;;;;;23.59;39.48;101028.03;4567558;26;19976;-74
2024/04/13 09:05:15;;;;;;;;;;;;;;;23.28;40.33;101020.41;4567249;26;19934;-73
2024/04/13 09:07:17;;;;;;;;;;;;;;;23.19;40.17;101023.34;4567355;26;20555;-73
2024/04/13 09:09:18;;;;;;;;;;;;;;;23.73;39.58;101020.69;4566873;25;19927;-72
2024/04/13 09:11:22;;;;;;;;;;;;;;;23.04;40.15;101023.44;4566613;26;19960;-72
2024/04/13 09:13:22;;;;;;;;;;;;;;;23.61;39.13;101017.75;4568417;26;19995;-72
2024/04/13 09:15:22;;;;;;;;;;;;;;;23.80;38.76;101016.13;4568142;26;19939;-72
2024/04/13 09:17:24;;;;;;;;;;;;;;;23.65;39.00;101016.31;4567973;26;20313;-72
2024/04/13 09:19:24;;;;;;;;;;;;;;;24.00;38.40;101009.81;4568106;25;19927;-72
2024/04/13 09:21:26;;;;;;;;;;;;;;;24.20;38.11;101006.22;4567777;26;19928;-72
2024/04/13 09:23:29;;;;;;;;;;;;;;;24.23;37.81;101006.63;4570280;26;20002;-72
2024/04/13 09:25:30;;;;;;;;;;;;;;;24.56;37.55;101000.28;4569931;26;20027;-72
2024/04/13 09:27:31;;;;;;;;;;;;;;;24.23;37.66;101000.34;4570792;26;19934;-72
2024/04/13 09:29:31;;;;;;;;;;;;;;;24.83;36.50;100994.75;4573106;25;19973;-73
2024/04/13 09:31:38;;;;;;;;;;;;;;;25.19;36.26;100992.47;4571137;26;20388;-72
2024/04/13 09:33:39;;;;;;;;;;;;;;;25.28;35.90;100991.16;4567028;26;19931;-72
2024/04/13 09:35:39;;;;;;;;;;;;;;;25.62;35.36;100989.06;4567379;26;19934;-72
2024/04/13 09:37:39;;;;;;;;;;;;;;;25.86;35.09;100981.09;4569564;26;19927;-72
2024/04/13 09:39:41;;;;;;;;;;;;;;;25.72;35.12;100979.50;4570172;25;20255;-72
2024/04/13 09:41:42;;;;;;;;;;;;;;;25.30;35.38;100983.56;4569519;26;20259;-73
2024/04/13 09:43:45;;;;;;;;;;;;;;;25.53;35.40;100987.66;4570224;26;19927;-72
2024/04/13 09:45:47;;;;;;;;;;;;;;;25.29;35.83;100981.91;4537889;26;19982;-72
2024/04/13 09:47:51;;;;;;;;;;;;;;;25.73;35.16;100981.19;4570181;26;19928;-72
2024/04/13 09:49:51;;;;;;;;;;;;;;;25.75;35.24;100979.06;4570013;25;20337;-73
2024/04/13 09:51:52;;;;;;;;;;;;;;;25.38;35.54;100969.63;4537339;26;19980;-71
2024/04/13 09:53:53;;;;;;;;;;;;;;;25.15;36.18;100970.19;4570266;26;19939;-72
2024/04/13 09:55:53;;;;;;;;;;;;;;;24.88;36.34;100980.44;4569873;26;19927;-71
2024/04/13 09:57:54;;;;;;;;;;;;;;;25.25;36.08;100969.69;4537950;26;20023;-71
2024/04/13 09:59:55;;;;;;;;;;;;;;;25.48;35.55;100960.13;4569867;25;20388;-73
2024/04/13 10:01:55;;;;;;;;;;;;;;;26.10;34.46;100948.44;4569291;26;20443;-74
2024/04/13 10:03:55;;;;;;;;;;;;;;;26.01;34.52;100950.63;4570124;26;20377;-73
2024/04/13 10:05:56;;;;;;;;;;;;;;;26.04;34.79;100949.31;4570497;26;19935;-73
2024/04/13 10:07:57;;;;;;;;;;;;;;;26.05;34.84;100954.56;4538057;26;19935;-74
2024/04/13 10:10:00;;;;;;;;;;;;;;;25.78;35.09;100946.59;4567495;25;19927;-74
2024/04/13 10:12:01;;;;;;;;;;;;;;;26.25;34.39;100943.44;4568369;26;19927;-74
2024/04/13 10:14:02;;;;;;;;;;;;;;;26.05;34.85;100942.78;4565497;26;19928;-75
2024/04/13 10:16:03;;;;;;;;;;;;;;;25.92;35.21;100949.22;4555591;26;19938;-75
2024/04/13 10:18:04;;;;;;;;;;;;;;;26.33;34.65;100933.25;4568569;26;20024;-73
2024/04/13 10:20:04;;;;;;;;;;;;;;;26.77;33.57;100932.09;4569017;25;19938;-74
2024/04/13 10:22:05;;;;;;;;;;;;;;;26.16;34.69;100931.94;4536565;26;19935;-73